sensor_id;sensor_type;location;lat;lon;timestamp;temperature;humidity
19085;DHT22;9675;51.538;6.728;2023-10-31T00:01:14;14.10;99.90
19085;DHT22;9675;51.538;6.728;2023-10-31T00:03:41;14.10;99.90
19085;DHT22;9675;51.538;6.728;2023-10-31T00:06:10;14.10;99.90
19085;DHT22;9675;51.538;6.728;2023-10-31T00:08:38;14.10;99.90
19085;DHT22;9675;51.538;6.728;2023-10-31T00:11:05;14.10;99.90
19085;DHT22;9675;51.538;6.728;2023-10-31T00:13:32;14.10;99.90
19085;DHT22;9675;51.538;6.728;2023-10-31T00:15:59;14.00;99.90
19085;DHT22;9675;51.538;6.728;2023-10-31T00:18:26;14.00;99.90
19085;DHT22;9675;51.538;6.728;2023-10-31T00:20:53;14.00;99.90
19085;DHT22;9675;51.538;6.728;2023-10-31T00:23:22;14.00;99.90
19085;DHT22;9675;51.538;6.728;2023-10-31T00:25:50;13.90;99.90
19085;DHT22;9675;51.538;6.728;2023-10-31T00:28:17;13.90;99.90
19085;DHT22;9675;51.538;6.728;2023-10-31T00:30:45;13.90;99.90
19085;DHT22;9675;51.538;6.728;2023-10-31T00:33:12;13.90;99.90
19085;DHT22;9675;51.538;6.728;2023-10-31T00:35:40;13.90;99.90
19085;DHT22;9675;51.538;6.728;2023-10-31T00:38:07;13.90;99.90
19085;DHT22;9675;51.538;6.728;2023-10-31T00:40:34;13.90;99.90
19085;DHT22;9675;51.538;6.728;2023-10-31T00:43:02;13.80;99.90
19085;DHT22;9675;51.538;6.728;2023-10-31T00:45:30;13.80;99.90
19085;DHT22;9675;51.538;6.728;2023-10-31T00:47:56;13.80;99.90
19085;DHT22;9675;51.538;6.728;2023-10-31T00:50:23;13.80;99.90
19085;DHT22;9675;51.538;6.728;2023-10-31T00:52:50;13.80;99.90
19085;DHT22;9675;51.538;6.728;2023-10-31T00:55:17;13.80;99.90
19085;DHT22;9675;51.538;6.728;2023-10-31T00:57:44;13.70;99.90
19085;DHT22;9675;51.538;6.728;2023-10-31T01:00:14;13.70;99.90
19085;DHT22;9675;51.538;6.728;2023-10-31T01:02:41;13.70;99.90
19085;DHT22;9675;51.538;6.728;2023-10-31T01:05:10;13.70;99.90
19085;DHT22;9675;51.538;6.728;2023-10-31T01:07:37;13.60;99.90
19085;DHT22;9675;51.538;6.728;2023-10-31T01:10:04;13.50;99.90
19085;DHT22;9675;51.538;6.728;2023-10-31T01:12:32;13.50;99.90
19085;DHT22;9675;51.538;6.728;2023-10-31T01:14:59;13.50;99.90
19085;DHT22;9675;51.538;6.728;2023-10-31T01:17:28;13.50;99.90
19085;DHT22;9675;51.538;6.728;2023-10-31T01:19:55;13.50;99.90
19085;DHT22;9675;51.538;6.728;2023-10-31T01:22:22;13.50;99.90
19085;DHT22;9675;51.538;6.728;2023-10-31T01:24:49;13.40;99.90
19085;DHT22;9675;51.538;6.728;2023-10-31T01:27:16;13.50;99.90
19085;DHT22;9675;51.538;6.728;2023-10-31T01:29:43;13.50;99.90
19085;DHT22;9675;51.538;6.728;2023-10-31T01:32:10;13.40;99.90
19085;DHT22;9675;51.538;6.728;2023-10-31T01:34:39;13.40;99.90
19085;DHT22;9675;51.538;6.728;2023-10-31T01:37:06;13.40;99.90
19085;DHT22;9675;51.538;6.728;2023-10-31T01:39:33;13.40;99.90
19085;DHT22;9675;51.538;6.728;2023-10-31T01:42:02;13.40;99.90
19085;DHT22;9675;51.538;6.728;2023-10-31T01:44:29;13.40;99.90
19085;DHT22;9675;51.538;6.728;2023-10-31T01:46:56;13.40;99.90
19085;DHT22;9675;51.538;6.728;2023-10-31T01:49:24;13.40;99.90
19085;DHT22;9675;51.538;6.728;2023-10-31T01:51:52;13.30;99.90
19085;DHT22;9675;51.538;6.728;2023-10-31T01:54:19;13.30;99.90
19085;DHT22;9675;51.538;6.728;2023-10-31T01:56:47;13.30;99.90
19085;DHT22;9675;51.538;6.728;2023-10-31T01:59:16;13.30;99.90
19085;DHT22;9675;51.538;6.728;2023-10-31T02:01:43;13.30;99.90
19085;DHT22;9675;51.538;6.728;2023-10-31T02:04:11;13.30;99.90
19085;DHT22;9675;51.538;6.728;2023-10-31T02:06:38;13.20;99.90
19085;DHT22;9675;51.538;6.728;2023-10-31T02:09:06;13.20;99.90
19085;DHT22;9675;51.538;6.728;2023-10-31T02:11:33;13.20;99.90
19085;DHT22;9675;51.538;6.728;2023-10-31T02:14:01;13.20;99.90
19085;DHT22;9675;51.538;6.728;2023-10-31T02:16:28;13.20;99.90
19085;DHT22;9675;51.538;6.728;2023-10-31T02:18:55;13.10;99.90
19085;DHT22;9675;51.538;6.728;2023-10-31T02:21:22;13.10;99.90
19085;DHT22;9675;51.538;6.728;2023-10-31T02:24:00;13.10;99.90
19085;DHT22;9675;51.538;6.728;2023-10-31T02:26:31;13.10;99.90
19085;DHT22;9675;51.538;6.728;2023-10-31T02:28:59;13.10;99.90
19085;DHT22;9675;51.538;6.728;2023-10-31T02:31:27;13.10;99.90
19085;DHT22;9675;51.538;6.728;2023-10-31T02:33:55;13.10;99.90
19085;DHT22;9675;51.538;6.728;2023-10-31T02:36:22;13.10;99.90
19085;DHT22;9675;51.538;6.728;2023-10-31T02:38:49;13.10;99.90
19085;DHT22;9675;51.538;6.728;2023-10-31T02:41:18;13.10;99.90
19085;DHT22;9675;51.538;6.728;2023-10-31T02:43:45;13.10;99.90
19085;DHT22;9675;51.538;6.728;2023-10-31T02:46:12;13.00;99.90
19085;DHT22;9675;51.538;6.728;2023-10-31T02:48:41;13.10;99.90
19085;DHT22;9675;51.538;6.728;2023-10-31T02:51:08;13.10;99.90
19085;DHT22;9675;51.538;6.728;2023-10-31T02:53:35;13.10;99.90
19085;DHT22;9675;51.538;6.728;2023-10-31T02:56:03;13.10;99.90
19085;DHT22;9675;51.538;6.728;2023-10-31T02:58:31;13.10;99.90
19085;DHT22;9675;51.538;6.728;2023-10-31T03:00:58;13.00;99.90
19085;DHT22;9675;51.538;6.728;2023-10-31T03:03:25;13.00;99.90
19085;DHT22;9675;51.538;6.728;2023-10-31T03:05:52;13.00;99.90
19085;DHT22;9675;51.538;6.728;2023-10-31T03:08:19;13.00;99.90
19085;DHT22;9675;51.538;6.728;2023-10-31T03:10:47;13.00;99.90
19085;DHT22;9675;51.538;6.728;2023-10-31T03:13:17;12.90;99.90
19085;DHT22;9675;51.538;6.728;2023-10-31T03:15:47;13.00;99.90
19085;DHT22;9675;51.538;6.728;2023-10-31T03:18:14;13.00;99.90
19085;DHT22;9675;51.538;6.728;2023-10-31T03:20:44;12.90;99.90
19085;DHT22;9675;51.538;6.728;2023-10-31T03:23:12;12.90;99.90
19085;DHT22;9675;51.538;6.728;2023-10-31T03:25:39;12.90;99.90
19085;DHT22;9675;51.538;6.728;2023-10-31T03:28:17;12.90;99.90
19085;DHT22;9675;51.538;6.728;2023-10-31T03:30:48;12.90;99.90
19085;DHT22;9675;51.538;6.728;2023-10-31T03:33:15;12.90;99.90
19085;DHT22;9675;51.538;6.728;2023-10-31T03:35:43;12.90;99.90
19085;DHT22;9675;51.538;6.728;2023-10-31T03:38:10;12.90;99.90
19085;DHT22;9675;51.538;6.728;2023-10-31T03:40:38;12.80;99.90
19085;DHT22;9675;51.538;6.728;2023-10-31T03:43:05;12.80;99.90
19085;DHT22;9675;51.538;6.728;2023-10-31T03:45:32;12.80;99.90
19085;DHT22;9675;51.538;6.728;2023-10-31T03:48:00;12.80;99.90
19085;DHT22;9675;51.538;6.728;2023-10-31T03:50:27;12.80;99.90
19085;DHT22;9675;51.538;6.728;2023-10-31T03:52:54;12.80;99.90
19085;DHT22;9675;51.538;6.728;2023-10-31T03:55:21;12.80;99.90
19085;DHT22;9675;51.538;6.728;2023-10-31T03:57:48;12.70;99.90
19085;DHT22;9675;51.538;6.728;2023-10-31T04:00:16;12.70;99.90
19085;DHT22;9675;51.538;6.728;2023-10-31T04:02:43;12.70;99.90
19085;DHT22;9675;51.538;6.728;2023-10-31T04:05:12;12.70;99.90
19085;DHT22;9675;51.538;6.728;2023-10-31T04:07:39;12.70;99.90
19085;DHT22;9675;51.538;6.728;2023-10-31T04:10:07;12.70;99.90
19085;DHT22;9675;51.538;6.728;2023-10-31T04:12:35;12.70;99.90
19085;DHT22;9675;51.538;6.728;2023-10-31T04:15:02;12.70;99.90
19085;DHT22;9675;51.538;6.728;2023-10-31T04:17:30;12.70;99.90
19085;DHT22;9675;51.538;6.728;2023-10-31T04:19:57;12.70;99.90
19085;DHT22;9675;51.538;6.728;2023-10-31T04:22:25;12.70;99.90
19085;DHT22;9675;51.538;6.728;2023-10-31T04:24:53;12.60;99.90
19085;DHT22;9675;51.538;6.728;2023-10-31T04:27:20;12.60;99.90
19085;DHT22;9675;51.538;6.728;2023-10-31T04:29:47;12.70;99.90
19085;DHT22;9675;51.538;6.728;2023-10-31T04:32:14;12.70;99.90
19085;DHT22;9675;51.538;6.728;2023-10-31T04:34:41;12.70;99.90
19085;DHT22;9675;51.538;6.728;2023-10-31T04:37:08;12.70;99.90
19085;DHT22;9675;51.538;6.728;2023-10-31T04:39:37;12.60;99.90
19085;DHT22;9675;51.538;6.728;2023-10-31T04:42:04;12.60;99.90
19085;DHT22;9675;51.538;6.728;2023-10-31T04:44:32;12.60;99.90
19085;DHT22;9675;51.538;6.728;2023-10-31T04:46:59;12.60;99.90
19085;DHT22;9675;51.538;6.728;2023-10-31T04:49:25;12.60;99.90
19085;DHT22;9675;51.538;6.728;2023-10-31T04:51:53;12.60;99.90
19085;DHT22;9675;51.538;6.728;2023-10-31T04:54:20;12.60;99.90
19085;DHT22;9675;51.538;6.728;2023-10-31T04:56:49;12.60;99.90
19085;DHT22;9675;51.538;6.728;2023-10-31T04:59:16;12.60;99.90
19085;DHT22;9675;51.538;6.728;2023-10-31T05:01:48;12.60;99.90
19085;DHT22;9675;51.538;6.728;2023-10-31T05:04:16;12.70;99.90
19085;DHT22;9675;51.538;6.728;2023-10-31T05:06:43;12.70;99.90
19085;DHT22;9675;51.538;6.728;2023-10-31T05:09:11;12.70;99.90
19085;DHT22;9675;51.538;6.728;2023-10-31T05:11:38;12.60;99.90
19085;DHT22;9675;51.538;6.728;2023-10-31T05:14:08;12.60;99.90
19085;DHT22;9675;51.538;6.728;2023-10-31T05:16:42;12.60;99.90
19085;DHT22;9675;51.538;6.728;2023-10-31T05:19:09;12.70;99.90
19085;DHT22;9675;51.538;6.728;2023-10-31T05:21:37;12.70;99.90
19085;DHT22;9675;51.538;6.728;2023-10-31T05:24:05;12.60;99.90
19085;DHT22;9675;51.538;6.728;2023-10-31T05:26:34;12.60;99.90
19085;DHT22;9675;51.538;6.728;2023-10-31T05:29:01;12.60;99.90
19085;DHT22;9675;51.538;6.728;2023-10-31T05:31:30;12.60;99.90
19085;DHT22;9675;51.538;6.728;2023-10-31T05:33:57;12.70;99.90
19085;DHT22;9675;51.538;6.728;2023-10-31T05:36:25;12.70;99.90
19085;DHT22;9675;51.538;6.728;2023-10-31T05:38:53;12.70;99.90
19085;DHT22;9675;51.538;6.728;2023-10-31T05:41:20;12.70;99.90
19085;DHT22;9675;51.538;6.728;2023-10-31T05:43:47;12.60;99.90
19085;DHT22;9675;51.538;6.728;2023-10-31T05:46:14;12.60;99.90
19085;DHT22;9675;51.538;6.728;2023-10-31T05:48:45;12.60;99.90
19085;DHT22;9675;51.538;6.728;2023-10-31T05:51:13;12.60;99.90
19085;DHT22;9675;51.538;6.728;2023-10-31T05:53:42;12.60;99.90
19085;DHT22;9675;51.538;6.728;2023-10-31T05:56:12;12.60;99.90
19085;DHT22;9675;51.538;6.728;2023-10-31T05:58:40;12.60;99.90
19085;DHT22;9675;51.538;6.728;2023-10-31T06:01:08;12.60;99.90
19085;DHT22;9675;51.538;6.728;2023-10-31T06:03:37;12.60;99.90
19085;DHT22;9675;51.538;6.728;2023-10-31T06:06:10;12.60;99.90
19085;DHT22;9675;51.538;6.728;2023-10-31T06:08:38;12.60;99.90
19085;DHT22;9675;51.538;6.728;2023-10-31T06:11:06;12.60;99.90
19085;DHT22;9675;51.538;6.728;2023-10-31T06:13:33;12.60;99.90
19085;DHT22;9675;51.538;6.728;2023-10-31T06:16:01;12.60;99.90
19085;DHT22;9675;51.538;6.728;2023-10-31T06:18:28;12.60;99.90
19085;DHT22;9675;51.538;6.728;2023-10-31T06:20:55;12.60;99.90
19085;DHT22;9675;51.538;6.728;2023-10-31T06:23:24;12.60;99.90
19085;DHT22;9675;51.538;6.728;2023-10-31T06:25:51;12.60;99.90
19085;DHT22;9675;51.538;6.728;2023-10-31T06:28:18;12.60;99.90
19085;DHT22;9675;51.538;6.728;2023-10-31T06:30:45;12.70;99.90
19085;DHT22;9675;51.538;6.728;2023-10-31T06:33:12;12.60;99.90
19085;DHT22;9675;51.538;6.728;2023-10-31T06:35:39;12.60;99.90
19085;DHT22;9675;51.538;6.728;2023-10-31T06:38:07;12.60;99.90
19085;DHT22;9675;51.538;6.728;2023-10-31T06:40:35;12.60;99.90
19085;DHT22;9675;51.538;6.728;2023-10-31T06:43:02;12.60;99.90
19085;DHT22;9675;51.538;6.728;2023-10-31T06:45:29;12.60;99.90
19085;DHT22;9675;51.538;6.728;2023-10-31T06:47:56;12.60;99.90
19085;DHT22;9675;51.538;6.728;2023-10-31T06:50:23;12.60;99.90
19085;DHT22;9675;51.538;6.728;2023-10-31T06:52:50;12.60;99.90
19085;DHT22;9675;51.538;6.728;2023-10-31T06:55:17;12.60;99.90
19085;DHT22;9675;51.538;6.728;2023-10-31T06:57:46;12.60;99.90
19085;DHT22;9675;51.538;6.728;2023-10-31T07:00:13;12.60;99.90
19085;DHT22;9675;51.538;6.728;2023-10-31T07:02:41;12.60;99.90
19085;DHT22;9675;51.538;6.728;2023-10-31T07:05:08;12.70;99.90
19085;DHT22;9675;51.538;6.728;2023-10-31T07:07:36;12.60;99.90
19085;DHT22;9675;51.538;6.728;2023-10-31T07:10:04;12.60;99.90
19085;DHT22;9675;51.538;6.728;2023-10-31T07:12:32;12.60;99.90
19085;DHT22;9675;51.538;6.728;2023-10-31T07:15:00;12.60;99.90
19085;DHT22;9675;51.538;6.728;2023-10-31T07:17:27;12.60;99.90
19085;DHT22;9675;51.538;6.728;2023-10-31T07:19:54;12.60;99.90
19085;DHT22;9675;51.538;6.728;2023-10-31T07:22:21;12.60;99.90
19085;DHT22;9675;51.538;6.728;2023-10-31T07:24:50;12.60;99.90
19085;DHT22;9675;51.538;6.728;2023-10-31T07:27:18;12.60;99.90
19085;DHT22;9675;51.538;6.728;2023-10-31T07:29:45;12.50;99.90
19085;DHT22;9675;51.538;6.728;2023-10-31T07:32:14;12.50;99.90
19085;DHT22;9675;51.538;6.728;2023-10-31T07:34:41;12.50;99.90
19085;DHT22;9675;51.538;6.728;2023-10-31T07:37:09;12.60;99.90
19085;DHT22;9675;51.538;6.728;2023-10-31T07:39:36;12.60;99.90
19085;DHT22;9675;51.538;6.728;2023-10-31T07:42:04;12.50;99.90
19085;DHT22;9675;51.538;6.728;2023-10-31T07:44:31;12.50;99.90
19085;DHT22;9675;51.538;6.728;2023-10-31T07:46:59;12.50;99.90
19085;DHT22;9675;51.538;6.728;2023-10-31T07:49:27;12.50;99.90
19085;DHT22;9675;51.538;6.728;2023-10-31T07:51:54;12.50;99.90
19085;DHT22;9675;51.538;6.728;2023-10-31T07:54:21;12.50;99.90
19085;DHT22;9675;51.538;6.728;2023-10-31T07:56:48;12.50;99.90
19085;DHT22;9675;51.538;6.728;2023-10-31T07:59:15;12.50;99.90
19085;DHT22;9675;51.538;6.728;2023-10-31T08:01:42;12.50;99.90
19085;DHT22;9675;51.538;6.728;2023-10-31T08:04:09;12.50;99.90
19085;DHT22;9675;51.538;6.728;2023-10-31T08:06:38;12.50;99.90
19085;DHT22;9675;51.538;6.728;2023-10-31T08:09:05;12.50;99.90
19085;DHT22;9675;51.538;6.728;2023-10-31T08:11:32;12.50;99.90
19085;DHT22;9675;51.538;6.728;2023-10-31T08:14:00;12.50;99.90
19085;DHT22;9675;51.538;6.728;2023-10-31T08:16:28;12.40;99.90
19085;DHT22;9675;51.538;6.728;2023-10-31T08:18:55;12.50;99.90
19085;DHT22;9675;51.538;6.728;2023-10-31T08:21:22;12.50;99.90
19085;DHT22;9675;51.538;6.728;2023-10-31T08:23:50;12.50;99.90
19085;DHT22;9675;51.538;6.728;2023-10-31T08:26:18;12.50;99.90
19085;DHT22;9675;51.538;6.728;2023-10-31T08:28:45;12.50;99.90
19085;DHT22;9675;51.538;6.728;2023-10-31T08:31:12;12.50;99.90
19085;DHT22;9675;51.538;6.728;2023-10-31T08:33:39;12.50;99.90
19085;DHT22;9675;51.538;6.728;2023-10-31T08:36:07;12.50;99.90
19085;DHT22;9675;51.538;6.728;2023-10-31T08:38:34;12.50;99.90
19085;DHT22;9675;51.538;6.728;2023-10-31T08:41:03;12.50;99.90
19085;DHT22;9675;51.538;6.728;2023-10-31T08:43:30;12.50;99.90
19085;DHT22;9675;51.538;6.728;2023-10-31T08:45:58;12.50;99.90
19085;DHT22;9675;51.538;6.728;2023-10-31T08:48:25;12.50;99.90
19085;DHT22;9675;51.538;6.728;2023-10-31T08:50:52;12.50;99.90
19085;DHT22;9675;51.538;6.728;2023-10-31T08:53:19;12.60;99.90
19085;DHT22;9675;51.538;6.728;2023-10-31T08:55:46;12.60;99.90
19085;DHT22;9675;51.538;6.728;2023-10-31T08:58:14;12.60;99.90
19085;DHT22;9675;51.538;6.728;2023-10-31T09:00:43;12.60;99.90
19085;DHT22;9675;51.538;6.728;2023-10-31T09:03:10;12.60;99.90
19085;DHT22;9675;51.538;6.728;2023-10-31T09:05:37;12.60;99.90
19085;DHT22;9675;51.538;6.728;2023-10-31T09:08:05;12.60;99.90
19085;DHT22;9675;51.538;6.728;2023-10-31T09:10:32;12.70;99.90
19085;DHT22;9675;51.538;6.728;2023-10-31T09:13:00;12.70;99.90
19085;DHT22;9675;51.538;6.728;2023-10-31T09:15:28;12.70;99.90
19085;DHT22;9675;51.538;6.728;2023-10-31T09:17:55;12.70;99.90
19085;DHT22;9675;51.538;6.728;2023-10-31T09:20:22;12.70;99.90
19085;DHT22;9675;51.538;6.728;2023-10-31T09:22:49;12.70;99.90
19085;DHT22;9675;51.538;6.728;2023-10-31T09:25:16;12.70;99.90
19085;DHT22;9675;51.538;6.728;2023-10-31T09:27:43;12.70;99.90
19085;DHT22;9675;51.538;6.728;2023-10-31T09:30:11;12.70;99.90
19085;DHT22;9675;51.538;6.728;2023-10-31T09:32:39;12.80;99.90
19085;DHT22;9675;51.538;6.728;2023-10-31T09:35:07;12.80;99.90
19085;DHT22;9675;51.538;6.728;2023-10-31T09:37:34;12.80;99.90
19085;DHT22;9675;51.538;6.728;2023-10-31T09:40:01;12.80;99.90
19085;DHT22;9675;51.538;6.728;2023-10-31T09:42:29;12.80;99.90
19085;DHT22;9675;51.538;6.728;2023-10-31T09:44:56;12.80;99.90
19085;DHT22;9675;51.538;6.728;2023-10-31T09:47:23;12.80;99.90
19085;DHT22;9675;51.538;6.728;2023-10-31T09:49:53;12.80;99.90
19085;DHT22;9675;51.538;6.728;2023-10-31T09:52:20;12.80;99.90
19085;DHT22;9675;51.538;6.728;2023-10-31T09:54:49;12.90;99.90
19085;DHT22;9675;51.538;6.728;2023-10-31T09:57:17;12.90;99.90
19085;DHT22;9675;51.538;6.728;2023-10-31T09:59:45;12.90;99.90
19085;DHT22;9675;51.538;6.728;2023-10-31T10:02:12;12.90;99.90
19085;DHT22;9675;51.538;6.728;2023-10-31T10:04:39;12.90;99.90
19085;DHT22;9675;51.538;6.728;2023-10-31T10:07:08;12.90;99.90
19085;DHT22;9675;51.538;6.728;2023-10-31T10:09:36;12.90;99.90
19085;DHT22;9675;51.538;6.728;2023-10-31T10:12:05;12.90;99.90
19085;DHT22;9675;51.538;6.728;2023-10-31T10:14:33;12.90;99.90
19085;DHT22;9675;51.538;6.728;2023-10-31T10:17:00;12.90;99.90
19085;DHT22;9675;51.538;6.728;2023-10-31T10:19:27;13.00;99.90
19085;DHT22;9675;51.538;6.728;2023-10-31T10:21:55;13.00;99.90
19085;DHT22;9675;51.538;6.728;2023-10-31T10:24:25;13.00;99.90
19085;DHT22;9675;51.538;6.728;2023-10-31T10:26:52;13.00;99.90
19085;DHT22;9675;51.538;6.728;2023-10-31T10:29:19;13.00;99.90
19085;DHT22;9675;51.538;6.728;2023-10-31T10:31:47;13.00;99.90
19085;DHT22;9675;51.538;6.728;2023-10-31T10:34:15;13.00;99.90
19085;DHT22;9675;51.538;6.728;2023-10-31T10:36:47;13.00;99.90
19085;DHT22;9675;51.538;6.728;2023-10-31T10:39:18;13.00;99.90
19085;DHT22;9675;51.538;6.728;2023-10-31T10:41:52;13.00;99.90
19085;DHT22;9675;51.538;6.728;2023-10-31T10:44:26;13.00;99.90
19085;DHT22;9675;51.538;6.728;2023-10-31T10:47:01;13.00;99.90
19085;DHT22;9675;51.538;6.728;2023-10-31T10:49:33;13.00;99.90
19085;DHT22;9675;51.538;6.728;2023-10-31T10:52:11;13.00;99.90
19085;DHT22;9675;51.538;6.728;2023-10-31T10:54:53;13.00;99.90
19085;DHT22;9675;51.538;6.728;2023-10-31T10:57:31;13.10;99.90
19085;DHT22;9675;51.538;6.728;2023-10-31T11:00:04;13.10;99.90
19085;DHT22;9675;51.538;6.728;2023-10-31T11:02:35;13.10;99.90
19085;DHT22;9675;51.538;6.728;2023-10-31T11:05:05;13.10;99.90
19085;DHT22;9675;51.538;6.728;2023-10-31T11:07:34;13.10;99.90
19085;DHT22;9675;51.538;6.728;2023-10-31T11:10:04;13.10;99.90
19085;DHT22;9675;51.538;6.728;2023-10-31T11:12:33;13.10;99.90
19085;DHT22;9675;51.538;6.728;2023-10-31T11:15:02;13.10;99.90
19085;DHT22;9675;51.538;6.728;2023-10-31T11:17:32;13.20;99.90
19085;DHT22;9675;51.538;6.728;2023-10-31T11:20:02;13.20;99.90
19085;DHT22;9675;51.538;6.728;2023-10-31T11:22:37;13.20;99.90
19085;DHT22;9675;51.538;6.728;2023-10-31T11:25:07;13.30;99.90
19085;DHT22;9675;51.538;6.728;2023-10-31T11:27:36;13.30;99.90
19085;DHT22;9675;51.538;6.728;2023-10-31T11:30:06;13.30;99.90
19085;DHT22;9675;51.538;6.728;2023-10-31T11:32:34;13.30;99.90
19085;DHT22;9675;51.538;6.728;2023-10-31T11:35:02;13.30;99.90
19085;DHT22;9675;51.538;6.728;2023-10-31T11:37:32;13.30;99.90
19085;DHT22;9675;51.538;6.728;2023-10-31T11:40:18;13.30;99.90
19085;DHT22;9675;51.538;6.728;2023-10-31T11:42:50;13.40;99.90
19085;DHT22;9675;51.538;6.728;2023-10-31T11:45:27;13.40;99.90
19085;DHT22;9675;51.538;6.728;2023-10-31T11:47:56;13.40;99.90
19085;DHT22;9675;51.538;6.728;2023-10-31T11:50:24;13.40;99.90
19085;DHT22;9675;51.538;6.728;2023-10-31T11:53:05;13.40;99.90
19085;DHT22;9675;51.538;6.728;2023-10-31T11:55:36;13.40;99.90
19085;DHT22;9675;51.538;6.728;2023-10-31T11:58:15;13.40;99.90
19085;DHT22;9675;51.538;6.728;2023-10-31T12:00:44;13.50;99.90
19085;DHT22;9675;51.538;6.728;2023-10-31T12:03:11;13.40;99.90
19085;DHT22;9675;51.538;6.728;2023-10-31T12:05:39;13.50;99.90
19085;DHT22;9675;51.538;6.728;2023-10-31T12:08:06;13.50;99.90
19085;DHT22;9675;51.538;6.728;2023-10-31T12:10:33;13.50;99.90
19085;DHT22;9675;51.538;6.728;2023-10-31T12:13:00;13.60;99.90
19085;DHT22;9675;51.538;6.728;2023-10-31T12:15:28;13.50;99.90
19085;DHT22;9675;51.538;6.728;2023-10-31T12:17:58;13.60;99.90
19085;DHT22;9675;51.538;6.728;2023-10-31T12:20:26;13.60;99.90
19085;DHT22;9675;51.538;6.728;2023-10-31T12:23:03;13.60;99.90
19085;DHT22;9675;51.538;6.728;2023-10-31T12:25:30;13.60;99.90
19085;DHT22;9675;51.538;6.728;2023-10-31T12:28:00;13.60;99.90
19085;DHT22;9675;51.538;6.728;2023-10-31T12:30:29;13.60;99.90
19085;DHT22;9675;51.538;6.728;2023-10-31T12:32:56;13.70;99.90
19085;DHT22;9675;51.538;6.728;2023-10-31T12:35:24;13.70;99.90
19085;DHT22;9675;51.538;6.728;2023-10-31T12:37:53;13.70;99.90
19085;DHT22;9675;51.538;6.728;2023-10-31T12:40:23;13.70;99.90
19085;DHT22;9675;51.538;6.728;2023-10-31T12:42:52;13.70;99.90
19085;DHT22;9675;51.538;6.728;2023-10-31T12:45:19;13.70;99.90
19085;DHT22;9675;51.538;6.728;2023-10-31T12:48:01;13.70;99.90
19085;DHT22;9675;51.538;6.728;2023-10-31T12:50:30;13.80;99.90
19085;DHT22;9675;51.538;6.728;2023-10-31T12:52:57;13.80;99.90
19085;DHT22;9675;51.538;6.728;2023-10-31T12:55:27;13.80;99.90
19085;DHT22;9675;51.538;6.728;2023-10-31T12:57:54;13.80;99.90
19085;DHT22;9675;51.538;6.728;2023-10-31T13:00:30;13.80;99.90
19085;DHT22;9675;51.538;6.728;2023-10-31T13:03:04;13.80;99.90
19085;DHT22;9675;51.538;6.728;2023-10-31T13:05:34;13.90;99.90
19085;DHT22;9675;51.538;6.728;2023-10-31T13:08:02;13.90;99.90
19085;DHT22;9675;51.538;6.728;2023-10-31T13:10:30;13.90;99.90
19085;DHT22;9675;51.538;6.728;2023-10-31T13:12:59;13.90;99.90
19085;DHT22;9675;51.538;6.728;2023-10-31T13:15:26;14.00;99.90
19085;DHT22;9675;51.538;6.728;2023-10-31T13:17:53;14.00;99.90
19085;DHT22;9675;51.538;6.728;2023-10-31T13:20:22;14.00;99.90
19085;DHT22;9675;51.538;6.728;2023-10-31T13:22:49;14.00;99.90
19085;DHT22;9675;51.538;6.728;2023-10-31T13:25:16;14.10;99.90
19085;DHT22;9675;51.538;6.728;2023-10-31T13:27:45;14.10;99.90
19085;DHT22;9675;51.538;6.728;2023-10-31T13:30:16;14.10;99.90
19085;DHT22;9675;51.538;6.728;2023-10-31T13:32:44;14.10;99.90
19085;DHT22;9675;51.538;6.728;2023-10-31T13:35:11;14.20;99.90
19085;DHT22;9675;51.538;6.728;2023-10-31T13:37:41;14.20;99.90
19085;DHT22;9675;51.538;6.728;2023-10-31T13:40:08;14.20;99.90
19085;DHT22;9675;51.538;6.728;2023-10-31T13:42:35;14.20;99.90
19085;DHT22;9675;51.538;6.728;2023-10-31T13:45:03;14.30;99.90
19085;DHT22;9675;51.538;6.728;2023-10-31T13:47:30;14.30;99.90
19085;DHT22;9675;51.538;6.728;2023-10-31T13:49:58;14.30;99.90
19085;DHT22;9675;51.538;6.728;2023-10-31T13:52:25;14.30;99.90
19085;DHT22;9675;51.538;6.728;2023-10-31T13:54:53;14.40;99.90
19085;DHT22;9675;51.538;6.728;2023-10-31T13:57:20;14.40;99.90
19085;DHT22;9675;51.538;6.728;2023-10-31T13:59:49;14.40;99.90
19085;DHT22;9675;51.538;6.728;2023-10-31T14:02:17;14.40;99.90
19085;DHT22;9675;51.538;6.728;2023-10-31T14:04:44;14.40;99.90
19085;DHT22;9675;51.538;6.728;2023-10-31T14:07:16;14.50;99.90
19085;DHT22;9675;51.538;6.728;2023-10-31T14:09:47;14.50;99.90
19085;DHT22;9675;51.538;6.728;2023-10-31T14:12:16;14.50;99.90
19085;DHT22;9675;51.538;6.728;2023-10-31T14:14:43;14.50;99.90
19085;DHT22;9675;51.538;6.728;2023-10-31T14:17:13;14.50;99.90
19085;DHT22;9675;51.538;6.728;2023-10-31T14:19:41;14.50;99.90
19085;DHT22;9675;51.538;6.728;2023-10-31T14:22:08;14.60;99.90
19085;DHT22;9675;51.538;6.728;2023-10-31T14:24:35;14.60;99.90
19085;DHT22;9675;51.538;6.728;2023-10-31T14:27:02;14.60;99.90
19085;DHT22;9675;51.538;6.728;2023-10-31T14:29:31;14.60;99.90
19085;DHT22;9675;51.538;6.728;2023-10-31T14:32:05;14.60;99.90
19085;DHT22;9675;51.538;6.728;2023-10-31T14:34:33;14.60;99.90
19085;DHT22;9675;51.538;6.728;2023-10-31T14:37:00;14.60;99.90
19085;DHT22;9675;51.538;6.728;2023-10-31T14:39:27;14.60;99.90
19085;DHT22;9675;51.538;6.728;2023-10-31T14:41:54;14.70;99.90
19085;DHT22;9675;51.538;6.728;2023-10-31T14:44:21;14.60;99.90
19085;DHT22;9675;51.538;6.728;2023-10-31T14:46:50;14.70;99.90
19085;DHT22;9675;51.538;6.728;2023-10-31T14:49:17;14.70;99.90
19085;DHT22;9675;51.538;6.728;2023-10-31T14:51:44;14.70;99.90
19085;DHT22;9675;51.538;6.728;2023-10-31T14:54:11;14.70;99.90
19085;DHT22;9675;51.538;6.728;2023-10-31T14:56:38;14.70;99.90
19085;DHT22;9675;51.538;6.728;2023-10-31T14:59:05;14.70;99.90
19085;DHT22;9675;51.538;6.728;2023-10-31T15:01:32;14.70;99.90
19085;DHT22;9675;51.538;6.728;2023-10-31T15:04:01;14.70;99.90
19085;DHT22;9675;51.538;6.728;2023-10-31T15:06:28;14.70;99.90
19085;DHT22;9675;51.538;6.728;2023-10-31T15:08:55;14.70;99.90
19085;DHT22;9675;51.538;6.728;2023-10-31T15:11:22;14.70;99.90
19085;DHT22;9675;51.538;6.728;2023-10-31T15:13:49;14.70;99.90
19085;DHT22;9675;51.538;6.728;2023-10-31T15:16:16;14.70;99.90
19085;DHT22;9675;51.538;6.728;2023-10-31T15:18:43;14.70;99.90
19085;DHT22;9675;51.538;6.728;2023-10-31T15:21:12;14.70;99.90
19085;DHT22;9675;51.538;6.728;2023-10-31T15:23:39;14.70;99.90
19085;DHT22;9675;51.538;6.728;2023-10-31T15:26:06;14.60;99.90
19085;DHT22;9675;51.538;6.728;2023-10-31T15:28:38;14.60;99.90
19085;DHT22;9675;51.538;6.728;2023-10-31T15:31:07;14.60;99.90
19085;DHT22;9675;51.538;6.728;2023-10-31T15:33:34;14.60;99.90
19085;DHT22;9675;51.538;6.728;2023-10-31T15:36:01;14.60;99.90
19085;DHT22;9675;51.538;6.728;2023-10-31T15:38:30;14.60;99.90
19085;DHT22;9675;51.538;6.728;2023-10-31T15:40:57;14.60;99.90
19085;DHT22;9675;51.538;6.728;2023-10-31T15:43:24;14.60;99.90
19085;DHT22;9675;51.538;6.728;2023-10-31T15:45:51;14.60;99.90
19085;DHT22;9675;51.538;6.728;2023-10-31T15:48:18;14.60;99.90
19085;DHT22;9675;51.538;6.728;2023-10-31T15:50:45;14.60;99.90